createdAt,value
2019-03-06T00:00:51.053Z,6.40
2019-03-06T00:03:24.028Z,8.20
2019-03-06T00:05:55.406Z,6.03
2019-03-06T00:08:26.973Z,5.50
2019-03-06T00:10:58.049Z,4.77
2019-03-06T00:13:29.199Z,5.10
2019-03-06T00:16:00.333Z,5.83
2019-03-06T00:18:31.443Z,6.33
2019-03-06T00:21:02.537Z,7.27
2019-03-06T00:23:33.825Z,8.10
2019-03-06T00:26:05.059Z,11.47
2019-03-06T00:28:36.319Z,10.00
2019-03-06T00:31:07.414Z,10.27
2019-03-06T00:33:38.618Z,9.83
2019-03-06T00:36:15.731Z,7.50
2019-03-06T00:38:46.856Z,9.43
2019-03-06T00:41:42.790Z,8.17
2019-03-06T00:44:14.047Z,8.50
2019-03-06T00:46:45.135Z,7.47
2019-03-06T00:49:16.372Z,7.73
2019-03-06T00:51:47.616Z,7.60
2019-03-06T00:54:18.822Z,7.83
2019-03-06T00:56:49.915Z,7.83
2019-03-06T00:59:21.291Z,9.50
2019-03-06T01:01:52.283Z,9.80
2019-03-06T01:04:23.753Z,9.20
2019-03-06T01:06:54.992Z,7.47
2019-03-06T01:09:26.260Z,6.47
2019-03-06T01:11:57.490Z,6.20
2019-03-06T01:14:28.891Z,7.43
2019-03-06T01:17:01.163Z,6.13
2019-03-06T01:19:32.523Z,7.33
2019-03-06T01:22:03.630Z,6.30
2019-03-06T01:24:34.877Z,5.97
2019-03-06T01:27:06.143Z,7.30
2019-03-06T01:29:37.324Z,6.63
2019-03-06T01:32:08.380Z,6.80
2019-03-06T01:35:01.132Z,6.40
2019-03-06T01:37:51.263Z,7.27
2019-03-06T01:40:48.789Z,5.03
2019-03-06T01:43:28.374Z,5.67
2019-03-06T01:45:59.988Z,7.23
2019-03-06T01:48:31.115Z,6.67
2019-03-06T01:51:02.239Z,7.00
2019-03-06T01:53:33.542Z,6.43
2019-03-06T01:56:05.859Z,7.50
2019-03-06T01:58:36.958Z,7.77
2019-03-06T02:01:08.264Z,7.23
2019-03-06T02:03:39.362Z,6.57
2019-03-06T02:06:10.700Z,6.37
2019-03-06T02:08:41.795Z,6.70
2019-03-06T02:11:13.204Z,6.57
2019-03-06T02:13:44.470Z,6.30
2019-03-06T02:16:15.922Z,6.60
2019-03-06T02:18:47.163Z,6.60
2019-03-06T02:21:18.433Z,7.03
2019-03-06T02:23:49.447Z,5.53
2019-03-06T02:26:20.663Z,5.37
2019-03-06T02:28:52.289Z,4.60
2019-03-06T02:31:23.562Z,4.40
2019-03-06T02:33:54.920Z,4.73
2019-03-06T02:36:26.197Z,4.67
2019-03-06T02:38:57.364Z,5.87
2019-03-06T02:41:28.574Z,4.37
2019-03-06T02:43:59.742Z,4.03
2019-03-06T02:46:30.982Z,4.17
2019-03-06T02:49:03.267Z,3.60
2019-03-06T02:51:34.902Z,4.07
2019-03-06T02:54:06.215Z,4.53
2019-03-06T02:56:37.411Z,4.20
2019-03-06T02:59:27.493Z,4.07
2019-03-06T03:02:11.134Z,3.80
2019-03-06T03:05:13.254Z,3.90
2019-03-06T03:07:44.293Z,4.07
2019-03-06T03:10:16.030Z,3.40
2019-03-06T03:12:47.055Z,3.63
2019-03-06T03:15:19.274Z,3.83
2019-03-06T03:17:50.592Z,3.37
2019-03-06T03:20:22.868Z,3.93
2019-03-06T03:22:54.241Z,4.27
2019-03-06T03:25:25.501Z,4.03
2019-03-06T03:27:56.608Z,4.43
2019-03-06T03:30:27.705Z,6.13
2019-03-06T03:32:59.036Z,13.47
2019-03-06T03:35:30.168Z,25.70
2019-03-06T03:38:01.801Z,44.03
2019-03-06T03:40:32.932Z,30.03
2019-03-06T03:43:04.201Z,21.57
2019-03-06T03:45:35.459Z,13.57
2019-03-06T03:48:07.433Z,17.80
2019-03-06T03:50:38.526Z,14.97
2019-03-06T03:53:13.529Z,34.83
2019-03-06T03:55:44.700Z,24.23
2019-03-06T03:58:15.753Z,49.97
2019-03-06T04:00:48.037Z,46.77
2019-03-06T04:03:19.222Z,98.80
2019-03-06T04:05:50.449Z,231.10
2019-03-06T04:08:21.886Z,119.27
2019-03-06T04:10:53.380Z,54.87
2019-03-06T04:16:17.549Z,34.60
2019-03-06T04:18:49.059Z,23.77
2019-03-06T04:21:20.327Z,17.60
2019-03-06T04:23:51.839Z,12.87
2019-03-06T04:26:23.142Z,11.90
2019-03-06T04:28:55.695Z,8.90
2019-03-06T04:31:26.885Z,8.27
2019-03-06T04:34:11.444Z,10.00
2019-03-06T04:36:43.970Z,8.90
2019-03-06T04:39:15.451Z,10.17
2019-03-06T04:41:46.852Z,8.37
2019-03-06T04:44:18.780Z,10.27
2019-03-06T04:46:50.332Z,13.20
2019-03-06T04:49:23.553Z,13.27
2019-03-06T04:51:54.952Z,14.00
2019-03-06T04:54:26.416Z,13.73
2019-03-06T04:56:57.820Z,10.47
2019-03-06T04:59:30.891Z,9.27
2019-03-06T05:02:02.585Z,12.40
2019-03-06T05:04:34.081Z,12.60
2019-03-06T05:07:06.667Z,12.47
2019-03-06T05:09:37.907Z,11.07
2019-03-06T05:12:09.540Z,11.57
2019-03-06T05:14:40.961Z,10.30
2019-03-06T05:17:28.367Z,11.17
2019-03-06T05:19:59.958Z,10.33
2019-03-06T05:22:31.645Z,10.10
2019-03-06T05:25:03.554Z,10.80
2019-03-06T05:27:34.871Z,10.33
2019-03-06T05:30:06.815Z,11.00
2019-03-06T05:32:39.106Z,11.37
2019-03-06T05:35:38.659Z,10.90
2019-03-06T05:38:16.001Z,11.20
2019-03-06T05:40:47.607Z,10.73
2019-03-06T05:43:19.206Z,12.37
2019-03-06T05:45:51.221Z,12.90
2019-03-06T05:48:22.859Z,15.07
2019-03-06T05:50:54.236Z,14.30
2019-03-06T05:53:26.052Z,13.63
2019-03-06T05:55:59.511Z,14.47
2019-03-06T05:58:31.072Z,13.37
2019-03-06T06:01:02.909Z,14.37
2019-03-06T06:03:35.714Z,12.80
2019-03-06T06:06:07.774Z,14.47
2019-03-06T06:08:40.124Z,14.43
2019-03-06T06:11:12.396Z,14.20
2019-03-06T06:13:44.204Z,14.50
2019-03-06T06:16:16.266Z,13.70
2019-03-06T06:18:48.109Z,14.40
2019-03-06T06:21:44.565Z,14.60
2019-03-06T06:24:19.682Z,14.63
2019-03-06T06:26:51.135Z,14.47
2019-03-06T06:29:22.449Z,14.77
2019-03-06T06:31:53.671Z,16.33
2019-03-06T06:34:25.385Z,12.87
2019-03-06T06:36:57.171Z,15.63
2019-03-06T06:39:28.725Z,20.33
2019-03-06T06:42:02.044Z,18.27
2019-03-06T06:44:33.842Z,19.50
2019-03-06T06:47:05.650Z,18.10
2019-03-06T06:49:36.884Z,16.80
2019-03-06T06:52:45.216Z,15.60
2019-03-06T06:55:51.868Z,13.87
2019-03-06T06:58:52.775Z,13.43
2019-03-06T07:02:27.415Z,14.47
2019-03-06T07:05:21.498Z,15.63
2019-03-06T07:08:23.787Z,12.60
2019-03-06T07:11:03.440Z,13.87
2019-03-06T07:13:57.658Z,13.40
2019-03-06T07:16:49.506Z,13.47
2019-03-06T07:19:40.648Z,13.77
2019-03-06T07:22:37.160Z,14.10
2019-03-06T07:25:27.601Z,13.40
2019-03-06T07:28:36.524Z,13.80
2019-03-06T07:31:36.024Z,15.00
2019-03-06T07:34:19.253Z,14.90
2019-03-06T07:37:12.646Z,16.97
2019-03-06T07:40:09.042Z,15.57
2019-03-06T07:42:58.657Z,16.83
2019-03-06T07:45:46.371Z,15.57
2019-03-06T07:48:26.485Z,10.40
2019-03-06T07:51:07.856Z,9.90
2019-03-06T07:54:08.278Z,11.87
2019-03-06T07:56:46.729Z,13.20
2019-03-06T07:59:20.801Z,8.53
2019-03-06T08:02:12.946Z,9.90
2019-03-06T08:04:53.492Z,10.60
2019-03-06T08:07:25.227Z,8.80
2019-03-06T08:09:56.911Z,8.73
2019-03-06T08:12:37.926Z,11.97
2019-03-06T08:15:43.819Z,7.10
2019-03-06T08:18:43.118Z,8.33
2019-03-06T08:21:32.074Z,7.33
2019-03-06T08:24:23.530Z,5.50
2019-03-06T08:26:55.231Z,5.70
2019-03-06T08:29:33.012Z,7.53
2019-03-06T08:32:26.560Z,8.90
2019-03-06T08:35:01.263Z,7.87
2019-03-06T08:37:32.626Z,10.23
2019-03-06T08:40:04.313Z,9.90
2019-03-06T08:42:40.104Z,7.73
2019-03-06T08:45:13.361Z,9.47
2019-03-06T08:48:02.636Z,7.17
2019-03-06T08:50:49.821Z,10.37
2019-03-06T08:53:30.116Z,10.43
2019-03-06T08:56:19.598Z,9.50
2019-03-06T08:59:01.197Z,9.13
2019-03-06T09:02:15.110Z,9.20
2019-03-06T09:05:14.575Z,9.70
2019-03-06T09:07:59.402Z,9.40
2019-03-06T09:10:50.119Z,10.20
2019-03-06T09:13:48.716Z,8.80
2019-03-06T09:16:43.305Z,9.37
2019-03-06T09:19:39.036Z,8.43
2019-03-06T09:22:29.606Z,8.40
2019-03-06T09:25:09.558Z,9.87
2019-03-06T09:27:53.541Z,11.73
2019-03-06T09:30:42.241Z,11.07
2019-03-06T09:33:39.040Z,12.67
2019-03-06T09:36:35.532Z,10.83
2019-03-06T09:39:35.090Z,10.23
2019-03-06T09:42:37.957Z,7.20
2019-03-06T09:45:30.764Z,11.70
2019-03-06T09:48:19.059Z,11.20
2019-03-06T09:51:08.646Z,13.60
2019-03-06T09:53:51.035Z,14.37
2019-03-06T09:56:46.597Z,14.27
2019-03-06T09:59:37.364Z,10.37
2019-03-06T10:02:45.840Z,12.80
2019-03-06T10:05:38.158Z,13.50
2019-03-06T10:08:28.580Z,13.20
2019-03-06T10:11:22.365Z,9.30
2019-03-06T10:14:12.819Z,15.23
2019-03-06T10:16:57.445Z,11.20
2019-03-06T10:19:33.702Z,15.93
2019-03-06T10:22:05.407Z,12.80
2019-03-06T10:24:37.239Z,16.20
2019-03-06T10:27:08.616Z,15.03
2019-03-06T10:29:40.490Z,12.80
2019-03-06T10:32:11.486Z,15.87
2019-03-06T10:34:43.095Z,14.73
2019-03-06T10:37:14.873Z,18.07
2019-03-06T10:39:46.899Z,14.07
2019-03-06T10:42:18.468Z,16.40
2019-03-06T10:44:51.128Z,14.50
2019-03-06T10:47:23.213Z,15.00
2019-03-06T10:49:54.902Z,14.00
2019-03-06T10:52:26.285Z,13.37
2019-03-06T10:54:58.199Z,16.00
2019-03-06T10:57:29.419Z,11.10
2019-03-06T11:00:00.451Z,12.87
2019-03-06T11:02:33.522Z,14.73
2019-03-06T11:05:16.526Z,15.33
2019-03-06T11:07:48.880Z,14.77
2019-03-06T11:10:23.691Z,13.10
2019-03-06T11:12:56.207Z,14.73
2019-03-06T11:15:28.861Z,15.57
2019-03-06T11:18:00.938Z,14.40
2019-03-06T11:20:34.108Z,14.03
2019-03-06T11:23:06.923Z,13.77
2019-03-06T11:25:39.493Z,14.47
2019-03-06T11:28:12.369Z,12.87
2019-03-06T11:30:53.213Z,13.63
2019-03-06T11:33:27.549Z,12.47
2019-03-06T11:36:00.936Z,13.70
2019-03-06T11:38:34.156Z,14.40
2019-03-06T11:41:06.848Z,12.97
2019-03-06T11:43:39.324Z,12.67
2019-03-06T11:46:11.695Z,12.60
2019-03-06T11:48:43.844Z,12.20
2019-03-06T11:51:16.879Z,12.50
2019-03-06T11:53:48.544Z,11.53
2019-03-06T11:56:20.528Z,13.20
2019-03-06T11:58:52.289Z,14.50
2019-03-06T12:01:28.585Z,13.53
2019-03-06T12:04:00.509Z,15.07
2019-03-06T12:06:32.282Z,13.63
2019-03-06T12:09:04.567Z,13.03
2019-03-06T12:11:37.725Z,11.50
2019-03-06T12:14:09.634Z,12.10
2019-03-06T12:16:41.973Z,14.23
2019-03-06T12:19:14.101Z,14.03
2019-03-06T12:21:46.254Z,14.67
2019-03-06T12:24:17.999Z,11.73
2019-03-06T12:26:49.759Z,11.07
2019-03-06T12:29:21.532Z,11.30
2019-03-06T12:31:53.382Z,11.03
2019-03-06T12:34:27.116Z,11.40
2019-03-06T12:36:58.823Z,9.70
2019-03-06T12:39:31.184Z,9.17
2019-03-06T12:42:02.999Z,10.40
2019-03-06T12:44:35.872Z,12.90
2019-03-06T12:47:07.927Z,11.80
2019-03-06T12:49:39.873Z,9.80
2019-03-06T12:52:11.620Z,11.77
2019-03-06T12:54:43.264Z,8.47
2019-03-06T12:57:15.372Z,10.70
2019-03-06T12:59:47.086Z,5.23
2019-03-06T13:02:18.858Z,8.30
2019-03-06T13:04:50.966Z,8.57
2019-03-06T13:07:22.507Z,7.53
2019-03-06T13:09:54.375Z,6.90
2019-03-06T13:12:29.142Z,6.67
2019-03-06T13:14:59.467Z,6.67
2019-03-06T13:17:31.137Z,7.87
2019-03-06T13:20:02.939Z,6.40
2019-03-06T13:22:34.898Z,5.90
2019-03-06T13:25:08.749Z,5.43
2019-03-06T13:27:40.724Z,5.90
2019-03-06T13:30:13.624Z,5.93
2019-03-06T13:33:17.903Z,6.60
2019-03-06T13:35:49.555Z,7.20
2019-03-06T13:38:21.248Z,7.40
2019-03-06T13:40:53.154Z,7.93
2019-03-06T13:43:25.284Z,7.97
2019-03-06T13:45:57.096Z,7.53
2019-03-06T13:48:28.312Z,7.27
2019-03-06T13:50:59.962Z,6.43
2019-03-06T13:53:31.861Z,6.70
2019-03-06T13:56:03.452Z,4.30
2019-03-06T13:58:35.314Z,7.33
2019-03-06T14:01:10.616Z,7.60
2019-03-06T14:03:42.428Z,7.07
2019-03-06T14:06:14.605Z,7.40
2019-03-06T14:08:47.527Z,8.30
2019-03-06T14:11:19.364Z,9.30
2019-03-06T14:13:51.103Z,8.20
2019-03-06T14:16:23.218Z,9.27
2019-03-06T14:18:54.895Z,9.30
2019-03-06T14:21:27.213Z,9.20
2019-03-06T14:23:59.800Z,9.23
2019-03-06T14:26:31.538Z,9.37
2019-03-06T14:29:03.310Z,10.03
2019-03-06T14:31:35.087Z,10.13
2019-03-06T14:34:06.947Z,9.73
2019-03-06T14:36:38.695Z,10.00
2019-03-06T14:39:28.084Z,10.07
2019-03-06T14:42:01.356Z,10.53
2019-03-06T14:44:33.327Z,10.03
2019-03-06T14:47:05.379Z,11.67
2019-03-06T14:49:37.308Z,9.70
2019-03-06T14:52:08.957Z,8.97
2019-03-06T14:54:41.206Z,9.73
2019-03-06T14:57:12.945Z,9.73
2019-03-06T14:59:44.718Z,10.23
2019-03-06T15:02:19.167Z,11.67
2019-03-06T15:04:58.478Z,12.27
2019-03-06T15:07:30.292Z,12.33
2019-03-06T15:10:02.148Z,13.90
2019-03-06T15:12:34.278Z,13.73
2019-03-06T15:15:05.983Z,14.37
2019-03-06T15:17:40.716Z,14.53
2019-03-06T15:20:16.613Z,14.40
2019-03-06T15:22:50.735Z,14.50
2019-03-06T15:25:25.774Z,16.23
2019-03-06T15:27:57.822Z,15.43
2019-03-06T15:30:29.412Z,15.90
2019-03-06T15:33:01.584Z,18.60
2019-03-06T15:35:34.119Z,22.67
2019-03-06T15:38:09.131Z,19.23
2019-03-06T15:40:41.557Z,15.93
2019-03-06T15:43:18.646Z,15.33
2019-03-06T15:45:50.477Z,17.20
2019-03-06T15:48:22.130Z,17.00
2019-03-06T15:50:53.473Z,17.13
2019-03-06T15:53:27.064Z,17.83
2019-03-06T15:55:59.135Z,19.73
2019-03-06T15:58:30.540Z,17.80
2019-03-06T16:01:02.085Z,19.17
2019-03-06T16:03:34.267Z,18.10
2019-03-06T16:06:06.507Z,19.53
2019-03-06T16:08:39.662Z,19.00
2019-03-06T16:11:12.271Z,18.97
2019-03-06T16:13:49.386Z,19.37
2019-03-06T16:16:21.132Z,19.97
2019-03-06T16:18:54.022Z,19.67
2019-03-06T16:21:25.980Z,19.67
2019-03-06T16:23:57.756Z,19.53
2019-03-06T16:26:29.417Z,20.60
2019-03-06T16:29:01.012Z,21.40
2019-03-06T16:31:36.345Z,20.63
2019-03-06T16:34:08.299Z,22.37
2019-03-06T16:36:41.516Z,22.30
2019-03-06T16:39:13.371Z,23.73
2019-03-06T16:41:46.428Z,22.20
2019-03-06T16:44:18.273Z,22.07
2019-03-06T16:46:50.096Z,21.57
2019-03-06T16:49:21.772Z,21.67
2019-03-06T16:51:53.692Z,21.50
2019-03-06T16:54:25.641Z,21.17
2019-03-06T16:56:57.573Z,21.37
2019-03-06T16:59:29.334Z,21.97
2019-03-06T17:02:01.340Z,21.63
2019-03-06T17:04:33.072Z,21.23
2019-03-06T17:07:04.884Z,20.90
2019-03-06T17:09:36.209Z,20.37
2019-03-06T17:12:07.573Z,20.17
2019-03-06T17:14:39.185Z,19.43
2019-03-06T17:17:10.649Z,20.50
2019-03-06T17:19:43.899Z,18.93
2019-03-06T17:22:15.220Z,19.03
2019-03-06T17:24:46.948Z,18.97
2019-03-06T17:27:18.758Z,19.10
2019-03-06T17:29:50.470Z,18.80
2019-03-06T17:32:22.728Z,18.97
2019-03-06T17:34:54.429Z,19.73
2019-03-06T17:37:26.226Z,20.77
2019-03-06T17:39:57.878Z,18.93
2019-03-06T17:42:29.651Z,18.50
2019-03-06T17:45:02.301Z,19.60
2019-03-06T17:47:34.252Z,18.77
2019-03-06T17:50:06.367Z,18.43
2019-03-06T17:52:38.365Z,17.70
2019-03-06T17:55:10.355Z,18.50
2019-03-06T17:57:42.097Z,18.13
2019-03-06T18:00:17.163Z,18.33
2019-03-06T18:02:49.025Z,19.53
2019-03-06T18:05:20.686Z,19.40
2019-03-06T18:07:52.086Z,20.50
2019-03-06T18:10:24.940Z,19.97
2019-03-06T18:12:56.624Z,21.57
2019-03-06T18:15:28.354Z,19.80
2019-03-06T18:17:59.656Z,22.63
2019-03-06T18:20:30.848Z,23.43
2019-03-06T18:23:02.176Z,23.13
2019-03-06T18:25:33.320Z,21.67
2019-03-06T18:28:05.469Z,21.73
2019-03-06T18:30:37.218Z,24.30
2019-03-06T18:33:08.829Z,23.20
2019-03-06T18:35:40.217Z,22.23
2019-03-06T18:38:11.996Z,23.10
2019-03-06T18:40:43.448Z,22.27
2019-03-06T18:43:14.850Z,24.43
2019-03-06T18:45:46.093Z,24.80
2019-03-06T18:48:17.840Z,24.27
2019-03-06T18:50:49.408Z,23.70
2019-03-06T18:53:21.033Z,26.00
2019-03-06T18:55:52.559Z,24.40
2019-03-06T18:58:24.401Z,25.77
2019-03-06T19:00:56.199Z,26.43
2019-03-06T19:03:28.030Z,24.03
2019-03-06T19:05:59.684Z,20.50
2019-03-06T19:08:31.783Z,19.73
2019-03-06T19:11:03.833Z,24.53
2019-03-06T19:13:35.737Z,21.60
2019-03-06T19:16:06.885Z,23.70
2019-03-06T19:18:38.385Z,22.93
2019-03-06T19:21:09.652Z,21.73
2019-03-06T19:23:42.487Z,23.47
2019-03-06T19:26:13.856Z,25.07
2019-03-06T19:28:45.263Z,22.80
2019-03-06T19:31:16.538Z,23.80
2019-03-06T19:33:47.811Z,21.80
2019-03-06T19:36:19.051Z,20.73
2019-03-06T19:38:50.769Z,24.67
2019-03-06T19:41:22.439Z,24.57
2019-03-06T19:43:54.602Z,24.23
2019-03-06T19:46:26.370Z,22.30
2019-03-06T19:48:58.127Z,21.67
2019-03-06T19:51:29.725Z,24.43
2019-03-06T19:54:01.559Z,24.57
2019-03-06T19:56:33.629Z,23.13
2019-03-06T19:59:05.640Z,23.03
2019-03-06T20:01:37.100Z,21.53
2019-03-06T20:04:09.124Z,24.23
2019-03-06T20:06:40.908Z,25.10
2019-03-06T20:09:27.631Z,24.43
2019-03-06T20:11:58.903Z,25.07
2019-03-06T20:14:30.180Z,22.80
2019-03-06T20:17:02.000Z,23.03
2019-03-06T20:19:36.631Z,20.77
2019-03-06T20:22:11.840Z,23.83
2019-03-06T20:24:46.738Z,21.90
2019-03-06T20:27:22.266Z,21.57
2019-03-06T20:29:57.013Z,24.10
2019-03-06T20:32:34.159Z,23.60
2019-03-06T20:35:10.636Z,25.93
2019-03-06T20:37:46.017Z,23.43
2019-03-06T20:40:20.342Z,23.23
2019-03-06T20:42:55.234Z,22.53
2019-03-06T20:45:29.145Z,24.67
2019-03-06T20:48:02.997Z,25.70
2019-03-06T20:50:37.896Z,25.80
2019-03-06T20:53:12.051Z,24.13
2019-03-06T20:55:46.624Z,23.17
2019-03-06T20:58:20.708Z,22.33
2019-03-06T21:00:54.376Z,23.70
2019-03-06T21:03:29.021Z,26.10
2019-03-06T21:06:00.366Z,25.83
2019-03-06T21:08:31.314Z,27.43
2019-03-06T21:11:02.309Z,23.40
2019-03-06T21:13:33.482Z,25.53
2019-03-06T21:16:04.599Z,22.00
2019-03-06T21:18:35.775Z,23.90
2019-03-06T21:21:06.993Z,25.13
2019-03-06T21:23:38.029Z,17.50
2019-03-06T21:26:09.357Z,21.33
2019-03-06T21:28:40.507Z,22.83
2019-03-06T21:31:15.789Z,23.30
2019-03-06T21:33:46.765Z,22.00
2019-03-06T21:36:17.908Z,23.57
2019-03-06T21:38:49.037Z,22.20
2019-03-06T21:41:20.078Z,19.83
2019-03-06T21:43:51.183Z,20.87
2019-03-06T21:46:22.215Z,23.30
2019-03-06T21:48:53.143Z,14.20
2019-03-06T21:51:24.957Z,21.00
2019-03-06T21:53:56.022Z,18.77
2019-03-06T21:56:26.981Z,19.37
2019-03-06T21:58:58.326Z,20.47
2019-03-06T22:01:29.619Z,19.30
2019-03-06T22:04:00.741Z,23.70
2019-03-06T22:06:32.104Z,19.63
2019-03-06T22:09:03.196Z,18.47
2019-03-06T22:11:36.036Z,22.67
2019-03-06T22:14:07.022Z,23.30
2019-03-06T22:16:38.120Z,19.40
2019-03-06T22:19:09.189Z,21.97
2019-03-06T22:21:40.497Z,20.57
2019-03-06T22:24:11.849Z,21.50
2019-03-06T22:26:43.084Z,22.20
2019-03-06T22:29:14.014Z,18.93
2019-03-06T22:31:45.010Z,21.43
2019-03-06T22:34:15.982Z,23.40
2019-03-06T22:36:46.953Z,21.23
2019-03-06T22:39:18.165Z,21.43
2019-03-06T22:41:49.226Z,19.23
2019-03-06T22:44:20.225Z,19.27
2019-03-06T22:46:51.396Z,19.63
2019-03-06T22:49:22.444Z,18.00
2019-03-06T22:51:53.533Z,21.50
2019-03-06T22:54:24.639Z,22.30
2019-03-06T22:56:55.726Z,21.40
2019-03-06T22:59:26.645Z,18.47
2019-03-06T23:01:57.731Z,22.83
2019-03-06T23:04:28.843Z,21.83
2019-03-06T23:07:00.027Z,21.50
2019-03-06T23:09:31.113Z,21.70
2019-03-06T23:12:02.142Z,19.03
2019-03-06T23:14:33.326Z,23.63
2019-03-06T23:17:04.373Z,21.67
2019-03-06T23:19:35.294Z,21.17
2019-03-06T23:22:06.459Z,21.40
2019-03-06T23:24:37.420Z,20.23
2019-03-06T23:27:09.779Z,21.80
2019-03-06T23:29:40.960Z,17.27
2019-03-06T23:32:13.438Z,22.07
2019-03-06T23:34:44.328Z,26.17
2019-03-06T23:37:15.305Z,23.00
2019-03-06T23:39:46.502Z,22.20
2019-03-06T23:42:17.538Z,21.97
2019-03-06T23:44:48.478Z,22.93
2019-03-06T23:47:19.581Z,24.77
2019-03-06T23:49:50.459Z,23.67
2019-03-06T23:52:27.997Z,20.07
2019-03-06T23:54:59.067Z,24.67
2019-03-06T23:57:30.606Z,18.97
